Time,TemperatureF,DewpointF,PressureIn,WindDirection,WindDirectionDegrees,WindSpeedMPH,WindSpeedGustMPH,Humidity,HourlyPrecipIn,Conditions,Clouds,dailyrainin,SoftwareType,DateUTC
2013-09-17 00:00:00,44.3,40.7,30.38,East,89,0.0,2.0,87,0.00,,,0.03,Wunderground v.1.15,2013-09-17 04:00:00,
2013-09-17 00:01:00,44.2,40.6,30.37,East,89,0.0,2.0,87,0.00,,,0.03,Wunderground v.1.15,2013-09-17 04:01:00,
2013-09-17 00:02:00,44.2,40.6,30.37,East,89,0.0,2.0,87,0.00,,,0.03,Wunderground v.1.15,2013-09-17 04:02:00,
2013-09-17 00:03:00,44.1,40.8,30.37,East,89,0.0,2.0,88,0.00,,,0.03,Wunderground v.1.15,2013-09-17 04:03:00,
2013-09-17 00:04:00,44.1,40.8,30.37,East,89,0.0,2.0,88,0.00,,,0.03,Wunderground v.1.15,2013-09-17 04:04:00,
2013-09-17 00:05:00,44.0,40.7,30.38,East,89,0.0,2.0,88,0.00,,,0.03,Wunderground v.1.15,2013-09-17 04:05:00,
2013-09-17 00:11:00,43.6,40.6,30.38,East,89,0.0,2.0,89,0.00,,,0.00,Wunderground v.1.15,2013-09-17 04:11:00,
2013-09-17 00:16:00,43.3,40.3,30.38,East,89,0.0,2.0,89,0.00,,,0.00,Wunderground v.1.15,2013-09-17 04:16:00,
2013-09-17 00:17:00,43.3,40.3,30.38,East,89,0.0,2.0,89,0.00,,,0.00,Wunderground v.1.15,2013-09-17 04:17:00,
2013-09-17 00:22:00,43.0,40.0,30.38,East,89,0.0,2.0,89,0.00,,,0.00,Wunderground v.1.15,2013-09-17 04:22:00,
2013-09-17 00:27:00,42.7,40.0,30.39,East,89,0.0,2.0,90,0.00,,,0.00,Wunderground v.1.15,2013-09-17 04:27:00,
2013-09-17 00:33:00,42.5,39.8,30.39,East,89,0.0,2.0,90,0.00,,,0.00,Wunderground v.1.15,2013-09-17 04:33:00,
2013-09-17 00:39:00,42.2,39.5,30.39,East,89,0.0,2.0,90,0.00,,,0.00,Wunderground v.1.15,2013-09-17 04:39:00,
2013-09-17 00:44:00,42.1,39.7,30.39,East,89,0.0,2.0,91,0.00,,,0.00,Wunderground v.1.15,2013-09-17 04:44:00,
2013-09-17 00:49:00,42.0,39.6,30.39,East,89,0.0,2.0,91,0.00,,,0.00,Wunderground v.1.15,2013-09-17 04:49:00,
2013-09-17 00:55:00,41.9,39.7,30.39,East,89,0.0,2.0,92,0.00,,,0.00,Wunderground v.1.15,2013-09-17 04:55:00,
2013-09-17 01:00:00,42.0,39.8,30.40,East,89,0.0,8.0,92,0.00,,,0.00,Wunderground v.1.15,2013-09-17 05:00:00,
2013-09-17 01:06:00,41.9,39.7,30.40,East,89,0.0,8.0,92,0.00,,,0.00,Wunderground v.1.15,2013-09-17 05:06:00,
2013-09-17 01:12:00,41.9,40.0,30.40,NW,313,0.0,8.0,93,0.00,,,0.00,Wunderground v.1.15,2013-09-17 05:12:00,
2013-09-17 01:17:00,42.0,39.8,30.40,NW,312,1.0,8.0,92,0.00,,,0.00,Wunderground v.1.15,2013-09-17 05:17:00,
2013-09-17 01:23:00,42.1,39.9,30.40,NW,312,0.0,8.0,92,0.00,,,0.00,Wunderground v.1.15,2013-09-17 05:23:00,
2013-09-17 01:29:00,42.0,39.8,30.40,NW,312,0.0,8.0,92,0.00,,,0.00,Wunderground v.1.15,2013-09-17 05:29:00,
2013-09-17 01:34:00,41.9,39.7,30.40,NW,312,0.0,8.0,92,0.00,,,0.00,Wunderground v.1.15,2013-09-17 05:34:00,
2013-09-17 01:40:00,41.7,39.5,30.40,NW,312,0.0,8.0,92,0.00,,,0.00,Wunderground v.1.15,2013-09-17 05:40:00,
2013-09-17 01:45:00,41.6,39.4,30.40,NW,312,0.0,8.0,92,0.00,,,0.00,Wunderground v.1.15,2013-09-17 05:45:00,
2013-09-17 01:51:00,41.6,39.4,30.40,NW,312,0.0,8.0,92,0.00,,,0.00,Wunderground v.1.15,2013-09-17 05:51:00,
2013-09-17 01:57:00,41.6,39.2,30.40,NW,311,0.0,8.0,91,0.00,,,0.00,Wunderground v.1.15,2013-09-17 05:57:00,
2013-09-17 02:02:00,41.2,38.5,30.41,NW,312,0.0,8.0,90,0.00,,,0.00,Wunderground v.1.15,2013-09-17 06:02:00,
2013-09-17 02:08:00,40.6,38.2,30.41,NW,311,0.0,8.0,91,0.00,,,0.00,Wunderground v.1.15,2013-09-17 06:08:00,
2013-09-17 02:14:00,40.4,38.3,30.41,NW,312,0.0,8.0,92,0.00,,,0.00,Wunderground v.1.15,2013-09-17 06:14:00,
2013-09-17 02:20:00,40.4,38.5,30.41,NW,312,0.0,8.0,93,0.00,,,0.00,Wunderground v.1.15,2013-09-17 06:20:00,
2013-09-17 02:25:00,40.6,38.7,30.41,NW,311,0.0,8.0,93,0.00,,,0.00,Wunderground v.1.15,2013-09-17 06:25:00,
2013-09-17 02:31:00,41.0,38.9,30.41,NW,306,1.0,8.0,92,0.00,,,0.00,Wunderground v.1.15,2013-09-17 06:31:00,
2013-09-17 02:37:00,40.7,38.3,30.41,NW,306,0.0,8.0,91,0.00,,,0.00,Wunderground v.1.15,2013-09-17 06:37:00,
2013-09-17 02:43:00,40.3,37.6,30.42,NW,306,0.0,8.0,90,0.00,,,0.00,Wunderground v.1.15,2013-09-17 06:43:00,
2013-09-17 02:48:00,39.9,37.5,30.42,NW,306,0.0,8.0,91,0.00,,,0.00,Wunderground v.1.15,2013-09-17 06:48:00,
2013-09-17 02:54:00,39.8,37.7,30.42,NW,306,0.0,8.0,92,0.00,,,0.00,Wunderground v.1.15,2013-09-17 06:54:00,
2013-09-17 03:00:00,39.8,37.7,30.42,NW,306,0.0,8.0,92,0.00,,,0.00,Wunderground v.1.15,2013-09-17 07:00:00,
2013-09-17 03:06:00,39.8,37.7,30.42,NW,306,0.0,8.0,92,0.00,,,0.00,Wunderground v.1.15,2013-09-17 07:06:00,
2013-09-17 03:12:00,39.7,37.6,30.41,NW,306,0.0,8.0,92,0.00,,,0.00,Wunderground v.1.15,2013-09-17 07:12:00,
2013-09-17 03:18:00,39.6,37.2,30.41,NW,306,0.0,8.0,91,0.00,,,0.00,Wunderground v.1.15,2013-09-17 07:18:00,
2013-09-17 03:24:00,39.1,36.7,30.42,NW,306,0.0,8.0,91,0.00,,,0.00,Wunderground v.1.15,2013-09-17 07:24:00,
2013-09-17 03:29:00,38.6,36.2,30.42,NW,306,0.0,8.0,91,0.00,,,0.00,Wunderground v.1.15,2013-09-17 07:29:00,
2013-09-17 03:35:00,38.3,36.2,30.42,NW,306,0.0,8.0,92,0.00,,,0.00,Wunderground v.1.15,2013-09-17 07:35:00,
2013-09-17 03:41:00,38.2,36.4,30.43,NW,306,0.0,8.0,93,0.00,,,0.00,Wunderground v.1.15,2013-09-17 07:41:00,
2013-09-17 03:47:00,38.2,36.4,30.43,NW,306,0.0,8.0,93,0.00,,,0.00,Wunderground v.1.15,2013-09-17 07:47:00,
2013-09-17 03:52:00,38.2,36.4,30.43,NW,306,0.0,8.0,93,0.00,,,0.00,Wunderground v.1.15,2013-09-17 07:52:00,
2013-09-17 03:58:00,38.1,36.3,30.43,NW,306,0.0,8.0,93,0.00,,,0.00,Wunderground v.1.15,2013-09-17 07:58:00,
2013-09-17 04:04:00,38.4,36.8,30.43,NW,306,0.0,8.0,94,0.00,,,0.00,Wunderground v.1.15,2013-09-17 08:04:00,
2013-09-17 04:10:00,38.6,37.0,30.43,NW,306,0.0,8.0,94,0.00,,,0.00,Wunderground v.1.15,2013-09-17 08:10:00,
2013-09-17 04:16:00,38.5,36.7,30.43,NW,306,0.0,8.0,93,0.00,,,0.00,Wunderground v.1.15,2013-09-17 08:16:00,
2013-09-17 04:22:00,38.2,36.4,30.43,NW,306,0.0,8.0,93,0.00,,,0.00,Wunderground v.1.15,2013-09-17 08:22:00,
2013-09-17 04:28:00,38.0,36.2,30.44,NW,306,0.0,8.0,93,0.00,,,0.00,Wunderground v.1.15,2013-09-17 08:28:00,
2013-09-17 04:33:00,37.7,35.6,30.44,NW,306,0.0,8.0,92,0.00,,,0.00,Wunderground v.1.15,2013-09-17 08:33:00,
2013-09-17 04:39:00,37.4,35.6,30.44,NW,306,0.0,8.0,93,0.00,,,0.00,Wunderground v.1.15,2013-09-17 08:39:00,
2013-09-17 04:45:00,37.1,35.3,30.44,NW,306,0.0,8.0,93,0.00,,,0.00,Wunderground v.1.15,2013-09-17 08:45:00,
2013-09-17 04:51:00,36.6,34.8,30.44,NW,306,0.0,8.0,93,0.00,,,0.00,Wunderground v.1.15,2013-09-17 08:51:00,
2013-09-17 04:56:00,36.5,34.7,30.44,NW,306,0.0,8.0,93,0.00,,,0.00,Wunderground v.1.15,2013-09-17 08:56:00,
2013-09-17 05:02:00,36.5,34.9,30.45,NW,306,0.0,8.0,94,0.00,,,0.00,Wunderground v.1.15,2013-09-17 09:02:00,
2013-09-17 05:08:00,36.4,34.8,30.45,NW,306,0.0,8.0,94,0.00,,,0.00,Wunderground v.1.15,2013-09-17 09:08:00,
2013-09-17 05:14:00,36.4,34.8,30.45,NW,306,0.0,8.0,94,0.00,,,0.00,Wunderground v.1.15,2013-09-17 09:14:00,
2013-09-17 05:20:00,36.4,34.8,30.45,NW,306,0.0,8.0,94,0.00,,,0.00,Wunderground v.1.15,2013-09-17 09:20:00,
2013-09-17 05:26:00,36.3,34.7,30.45,NW,306,0.0,8.0,94,0.00,,,0.00,Wunderground v.1.15,2013-09-17 09:26:00,
2013-09-17 05:32:00,36.1,34.5,30.46,NW,306,0.0,8.0,94,0.00,,,0.00,Wunderground v.1.15,2013-09-17 09:32:00,
2013-09-17 05:37:00,36.0,34.4,30.46,NW,306,0.0,8.0,94,0.00,,,0.00,Wunderground v.1.15,2013-09-17 09:37:00,
2013-09-17 05:43:00,35.8,34.2,30.46,NW,306,0.0,8.0,94,0.00,,,0.00,Wunderground v.1.15,2013-09-17 09:43:00,
2013-09-17 05:49:00,35.8,34.2,30.46,NW,306,0.0,8.0,94,0.00,,,0.00,Wunderground v.1.15,2013-09-17 09:49:00,
2013-09-17 05:55:00,35.8,34.2,30.47,NW,306,0.0,8.0,94,0.00,,,0.00,Wunderground v.1.15,2013-09-17 09:55:00,
2013-09-17 06:00:00,35.6,34.0,30.47,NW,306,0.0,8.0,94,0.00,,,0.00,Wunderground v.1.15,2013-09-17 10:00:00,
2013-09-17 06:06:00,35.3,33.7,30.47,NW,306,0.0,8.0,94,0.00,,,0.00,Wunderground v.1.15,2013-09-17 10:06:00,
2013-09-17 06:12:00,35.2,33.6,30.47,NW,306,0.0,8.0,94,0.00,,,0.00,Wunderground v.1.15,2013-09-17 10:12:00,
2013-09-17 06:18:00,35.2,33.6,30.47,NW,306,0.0,8.0,94,0.00,,,0.00,Wunderground v.1.15,2013-09-17 10:18:00,
2013-09-17 06:24:00,35.1,33.5,30.47,NW,306,0.0,8.0,94,0.00,,,0.00,Wunderground v.1.15,2013-09-17 10:24:00,
2013-09-17 06:30:00,35.2,33.9,30.48,NW,306,0.0,8.0,95,0.00,,,0.00,Wunderground v.1.15,2013-09-17 10:30:00,
2013-09-17 06:36:00,35.2,33.9,30.48,NW,306,0.0,8.0,95,0.00,,,0.00,Wunderground v.1.15,2013-09-17 10:36:00,
2013-09-17 06:41:00,35.1,33.8,30.48,NW,306,0.0,8.0,95,0.00,,,0.00,Wunderground v.1.15,2013-09-17 10:41:00,
2013-09-17 06:47:00,35.0,33.7,30.48,NW,306,0.0,8.0,95,0.00,,,0.00,Wunderground v.1.15,2013-09-17 10:47:00,
2013-09-17 06:53:00,34.8,33.5,30.49,NW,306,0.0,8.0,95,0.00,,,0.00,Wunderground v.1.15,2013-09-17 10:53:00,
2013-09-17 06:59:00,34.8,33.5,30.49,NW,306,0.0,8.0,95,0.00,,,0.00,Wunderground v.1.15,2013-09-17 10:59:00,
2013-09-17 07:04:00,35.0,33.7,30.50,NW,306,0.0,8.0,95,0.00,,,0.00,Wunderground v.1.15,2013-09-17 11:04:00,
2013-09-17 07:10:00,35.2,33.9,30.50,NW,306,0.0,8.0,95,0.00,,,0.00,Wunderground v.1.15,2013-09-17 11:10:00,
2013-09-17 07:16:00,35.3,34.0,30.50,NW,306,0.0,8.0,95,0.00,,,0.00,Wunderground v.1.15,2013-09-17 11:16:00,
2013-09-17 07:22:00,35.4,34.1,30.50,NW,306,0.0,8.0,95,0.00,,,0.00,Wunderground v.1.15,2013-09-17 11:22:00,
2013-09-17 07:28:00,35.3,34.0,30.50,NW,306,0.0,8.0,95,0.00,,,0.00,Wunderground v.1.15,2013-09-17 11:28:00,
2013-09-17 07:34:00,35.4,34.1,30.51,NW,306,0.0,8.0,95,0.00,,,0.00,Wunderground v.1.15,2013-09-17 11:34:00,
2013-09-17 07:40:00,35.6,34.3,30.51,NW,306,0.0,8.0,95,0.00,,,0.00,Wunderground v.1.15,2013-09-17 11:40:00,
2013-09-17 07:45:00,35.9,34.6,30.51,NW,306,0.0,8.0,95,0.00,,,0.00,Wunderground v.1.15,2013-09-17 11:45:00,
2013-09-17 07:51:00,36.4,35.4,30.51,NW,306,0.0,8.0,96,0.00,,,0.00,Wunderground v.1.15,2013-09-17 11:51:00,
2013-09-17 07:57:00,37.0,36.0,30.51,NW,306,0.0,8.0,96,0.00,,,0.00,Wunderground v.1.15,2013-09-17 11:57:00,
2013-09-17 08:03:00,37.3,36.3,30.51,NW,306,0.0,8.0,96,0.00,,,0.00,Wunderground v.1.15,2013-09-17 12:03:00,
2013-09-17 08:08:00,37.6,36.3,30.51,NW,306,0.0,8.0,95,0.00,,,0.00,Wunderground v.1.15,2013-09-17 12:08:00,
2013-09-17 08:13:00,37.9,36.6,30.51,NW,306,0.0,8.0,95,0.00,,,0.00,Wunderground v.1.15,2013-09-17 12:13:00,
2013-09-17 08:19:00,38.3,37.3,30.52,NW,306,0.0,8.0,96,0.00,,,0.00,Wunderground v.1.15,2013-09-17 12:19:00,
2013-09-17 08:25:00,38.8,37.8,30.52,NW,306,0.0,8.0,96,0.00,,,0.00,Wunderground v.1.15,2013-09-17 12:25:00,
2013-09-17 08:31:00,39.6,38.6,30.52,NW,306,0.0,8.0,96,0.00,,,0.00,Wunderground v.1.15,2013-09-17 12:31:00,
2013-09-17 08:37:00,39.9,38.9,30.53,NW,306,0.0,8.0,96,0.00,,,0.00,Wunderground v.1.15,2013-09-17 12:37:00,
2013-09-17 08:42:00,40.2,38.9,30.53,NW,306,0.0,8.0,95,0.00,,,0.00,Wunderground v.1.15,2013-09-17 12:42:00,
2013-09-17 08:48:00,40.7,39.4,30.53,NW,306,0.0,8.0,95,0.00,,,0.00,Wunderground v.1.15,2013-09-17 12:48:00,
2013-09-17 08:54:00,41.4,40.1,30.53,WNW,296,0.0,8.0,95,0.00,,,0.00,Wunderground v.1.15,2013-09-17 12:54:00,
2013-09-17 09:00:00,42.0,40.7,30.53,WNW,296,1.0,1.0,95,0.00,,,0.00,Wunderground v.1.15,2013-09-17 13:00:00,
2013-09-17 09:05:00,42.6,41.0,30.53,WNW,290,1.0,8.0,94,0.00,,,0.00,Wunderground v.1.15,2013-09-17 13:05:00,
2013-09-17 09:11:00,43.5,41.6,30.54,WNW,290,0.0,8.0,93,0.00,,,0.00,Wunderground v.1.15,2013-09-17 13:11:00,
2013-09-17 09:16:00,44.2,41.7,30.54,WNW,300,1.0,8.0,91,0.00,,,0.00,Wunderground v.1.15,2013-09-17 13:16:00,
2013-09-17 09:22:00,44.9,41.9,30.54,WNW,300,2.0,8.0,89,0.00,,,0.00,Wunderground v.1.15,2013-09-17 13:22:00,
2013-09-17 09:28:00,45.5,41.9,30.54,WNW,293,1.0,8.0,87,0.00,,,0.00,Wunderground v.1.15,2013-09-17 13:28:00,
2013-09-17 09:33:00,45.9,41.9,30.54,WNW,296,2.0,8.0,86,0.00,,,0.00,Wunderground v.1.15,2013-09-17 13:33:00,
2013-09-17 09:39:00,46.2,41.9,30.54,WNW,296,1.0,8.0,85,0.00,,,0.00,Wunderground v.1.15,2013-09-17 13:39:00,
2013-09-17 09:44:00,46.7,42.1,30.54,WNW,296,1.0,8.0,84,0.00,,,0.00,Wunderground v.1.15,2013-09-17 13:44:00,
2013-09-17 09:50:00,47.4,42.8,30.54,WNW,296,1.0,1.0,84,0.00,,,0.00,Wunderground v.1.15,2013-09-17 13:50:00,
2013-09-17 09:56:00,48.0,42.8,30.54,WNW,296,1.0,8.0,82,0.00,,,0.00,Wunderground v.1.15,2013-09-17 13:56:00,
2013-09-17 10:02:00,49.2,42.3,30.54,ENE,74,1.0,8.0,77,0.00,,,0.00,Wunderground v.1.15,2013-09-17 14:02:00,
2013-09-17 10:07:00,49.8,41.5,30.54,NE,46,3.0,8.0,73,0.00,,,0.00,Wunderground v.1.15,2013-09-17 14:07:00,
2013-09-17 10:13:00,50.0,41.3,30.54,NE,55,5.0,8.0,72,0.00,,,0.00,Wunderground v.1.15,2013-09-17 14:13:00,
2013-09-17 10:19:00,50.5,41.4,30.54,NE,54,4.0,8.0,71,0.00,,,0.00,Wunderground v.1.15,2013-09-17 14:19:00,
2013-09-17 10:25:00,50.9,42.2,30.54,East,83,3.0,8.0,72,0.00,,,0.00,Wunderground v.1.15,2013-09-17 14:25:00,
2013-09-17 10:30:00,51.4,41.6,30.54,NE,47,3.0,3.0,69,0.00,,,0.00,Wunderground v.1.15,2013-09-17 14:30:00,
2013-09-17 10:36:00,51.6,41.0,30.54,ENE,57,4.0,8.0,67,0.00,,,0.00,Wunderground v.1.15,2013-09-17 14:36:00,
2013-09-17 10:42:00,51.9,41.3,30.54,NE,49,4.0,8.0,67,0.00,,,0.00,Wunderground v.1.15,2013-09-17 14:42:00,
2013-09-17 10:48:00,51.9,41.3,30.54,NNE,32,4.0,8.0,67,0.00,,,0.00,Wunderground v.1.15,2013-09-17 14:48:00,
2013-09-17 10:54:00,52.3,42.0,30.54,East,84,4.0,8.0,68,0.00,,,0.00,Wunderground v.1.15,2013-09-17 14:54:00,
2013-09-17 11:00:00,53.3,40.2,30.54,SE,138,5.0,8.0,61,0.00,,,0.00,Wunderground v.1.15,2013-09-17 15:00:00,
2013-09-17 11:06:00,53.2,39.7,30.54,ENE,71,5.0,8.0,60,0.00,,,0.00,Wunderground v.1.15,2013-09-17 15:06:00,
2013-09-17 11:11:00,54.0,40.0,30.54,SE,130,4.0,7.0,59,0.00,,,0.00,Wunderground v.1.15,2013-09-17 15:11:00,
2013-09-17 11:17:00,54.1,40.1,30.54,East,86,4.0,8.0,59,0.00,,,0.00,Wunderground v.1.15,2013-09-17 15:17:00,
2013-09-17 11:23:00,54.5,40.0,30.54,East,96,4.0,8.0,58,0.00,,,0.00,Wunderground v.1.15,2013-09-17 15:23:00,
2013-09-17 11:28:00,54.6,39.7,30.54,ESE,112,4.0,12.0,57,0.00,,,0.00,Wunderground v.1.15,2013-09-17 15:28:00,
2013-09-17 11:34:00,54.4,39.5,30.53,NE,46,5.0,8.0,57,0.00,,,0.00,Wunderground v.1.15,2013-09-17 15:34:00,
2013-09-17 11:39:00,54.5,39.1,30.53,ENE,69,5.0,8.0,56,0.00,,,0.00,Wunderground v.1.15,2013-09-17 15:39:00,
2013-09-17 11:44:00,54.9,39.0,30.53,ENE,76,4.0,8.0,55,0.00,,,0.00,Wunderground v.1.15,2013-09-17 15:44:00,
2013-09-17 11:50:00,55.1,39.7,30.53,ENE,71,4.0,4.0,56,0.00,,,0.00,Wunderground v.1.15,2013-09-17 15:50:00,
2013-09-17 11:55:00,55.4,39.5,30.53,SE,127,3.0,8.0,55,0.00,,,0.00,Wunderground v.1.15,2013-09-17 15:55:00,
2013-09-17 12:01:00,55.2,39.8,30.52,ENE,76,4.0,8.0,56,0.00,,,0.00,Wunderground v.1.15,2013-09-17 16:01:00,
2013-09-17 12:07:00,55.6,39.2,30.52,SE,136,3.0,8.0,54,0.00,,,0.00,Wunderground v.1.15,2013-09-17 16:07:00,
2013-09-17 12:12:00,55.7,40.2,30.53,East,88,3.0,8.0,56,0.00,,,0.00,Wunderground v.1.15,2013-09-17 16:12:00,
2013-09-17 12:18:00,56.0,41.0,30.53,NNE,12,3.0,8.0,57,0.00,,,0.00,Wunderground v.1.15,2013-09-17 16:18:00,
2013-09-17 12:24:00,56.8,40.8,30.52,East,94,3.0,8.0,55,0.00,,,0.00,Wunderground v.1.15,2013-09-17 16:24:00,
2013-09-17 12:30:00,57.0,39.5,30.52,ENE,63,4.0,4.0,52,0.00,,,0.00,Wunderground v.1.15,2013-09-17 16:30:00,
2013-09-17 12:35:00,57.3,40.3,30.52,NE,54,3.0,8.0,53,0.00,,,0.00,Wunderground v.1.15,2013-09-17 16:35:00,
2013-09-17 12:41:00,57.3,39.3,30.52,ENE,67,3.0,8.0,51,0.00,,,0.00,Wunderground v.1.15,2013-09-17 16:41:00,
2013-09-17 12:47:00,56.9,39.4,30.51,ENE,59,2.0,8.0,52,0.00,,,0.00,Wunderground v.1.15,2013-09-17 16:47:00,
2013-09-17 12:53:00,57.6,39.6,30.51,ESE,109,2.0,8.0,51,0.00,,,0.00,Wunderground v.1.15,2013-09-17 16:53:00,
2013-09-17 12:58:00,57.3,39.8,30.51,ESE,105,4.0,8.0,52,0.00,,,0.00,Wunderground v.1.15,2013-09-17 16:58:00,
2013-09-17 13:04:00,57.3,39.3,30.50,East,79,4.0,8.0,51,0.00,,,0.00,Wunderground v.1.15,2013-09-17 17:04:00,
2013-09-17 13:10:00,57.9,40.9,30.51,NNE,30,3.0,8.0,53,0.00,,,0.00,Wunderground v.1.15,2013-09-17 17:10:00,
2013-09-17 13:15:00,58.0,40.0,30.50,East,88,3.0,8.0,51,0.00,,,0.00,Wunderground v.1.15,2013-09-17 17:15:00,
2013-09-17 13:21:00,58.0,40.0,30.50,NE,36,3.0,8.0,51,0.00,,,0.00,Wunderground v.1.15,2013-09-17 17:21:00,
2013-09-17 13:27:00,58.4,40.3,30.50,SE,131,3.0,8.0,51,0.00,,,0.00,Wunderground v.1.15,2013-09-17 17:27:00,
2013-09-17 13:33:00,58.5,39.9,30.50,NE,36,3.0,8.0,50,0.00,,,0.00,Wunderground v.1.15,2013-09-17 17:33:00,
2013-09-17 13:38:00,58.6,40.0,30.49,East,81,4.0,9.0,50,0.00,,,0.00,Wunderground v.1.15,2013-09-17 17:38:00,
2013-09-17 13:44:00,58.2,39.6,30.49,SSE,167,5.0,8.0,50,0.00,,,0.00,Wunderground v.1.15,2013-09-17 17:44:00,
2013-09-17 13:50:00,58.7,40.6,30.49,ENE,78,4.0,4.0,51,0.00,,,0.00,Wunderground v.1.15,2013-09-17 17:50:00,
2013-09-17 13:56:00,59.4,40.2,30.48,ENE,60,4.0,8.0,49,0.00,,,0.00,Wunderground v.1.15,2013-09-17 17:56:00,
2013-09-17 14:01:00,59.5,40.3,30.48,NE,56,5.0,8.0,49,0.00,,,0.00,Wunderground v.1.15,2013-09-17 18:01:00,
2013-09-17 14:07:00,59.3,40.7,30.47,NE,44,4.0,8.0,50,0.00,,,0.00,Wunderground v.1.15,2013-09-17 18:07:00,
2013-09-17 14:13:00,59.0,40.4,30.47,ENE,72,4.0,8.0,50,0.00,,,0.00,Wunderground v.1.15,2013-09-17 18:13:00,
2013-09-17 14:18:00,59.2,40.6,30.47,East,97,5.0,8.0,50,0.00,,,0.00,Wunderground v.1.15,2013-09-17 18:18:00,
2013-09-17 14:24:00,59.0,41.4,30.47,East,97,5.0,8.0,52,0.00,,,0.00,Wunderground v.1.15,2013-09-17 18:24:00,
2013-09-17 14:29:00,59.3,41.7,30.47,ESE,117,5.0,12.0,52,0.00,,,0.00,Wunderground v.1.15,2013-09-17 18:29:00,
2013-09-17 14:35:00,59.2,41.1,30.47,ESE,114,5.0,8.0,51,0.00,,,0.00,Wunderground v.1.15,2013-09-17 18:35:00,
2013-09-17 14:41:00,59.4,40.7,30.47,ENE,70,4.0,8.0,50,0.00,,,0.00,Wunderground v.1.15,2013-09-17 18:41:00,
2013-09-17 14:47:00,59.7,41.0,30.47,SE,124,4.0,8.0,50,0.00,,,0.00,Wunderground v.1.15,2013-09-17 18:47:00,
2013-09-17 14:52:00,60.3,41.6,30.46,SE,138,3.0,8.0,50,0.00,,,0.00,Wunderground v.1.15,2013-09-17 18:52:00,
2013-09-17 14:58:00,60.4,41.1,30.47,NE,54,3.0,8.0,49,0.00,,,0.00,Wunderground v.1.15,2013-09-17 18:58:00,
2013-09-17 15:04:00,60.9,42.1,30.47,ESE,105,2.0,8.0,50,0.00,,,0.00,Wunderground v.1.15,2013-09-17 19:04:00,
2013-09-17 15:10:00,61.2,41.3,30.46,ENE,59,2.0,2.0,48,0.00,,,0.00,Wunderground v.1.15,2013-09-17 19:10:00,
2013-09-17 15:15:00,61.4,41.0,30.46,ENE,63,3.0,8.0,47,0.00,,,0.00,Wunderground v.1.15,2013-09-17 19:15:00,
2013-09-17 15:21:00,61.3,41.4,30.46,SE,126,3.0,8.0,48,0.00,,,0.00,Wunderground v.1.15,2013-09-17 19:21:00,
2013-09-17 15:27:00,61.8,41.9,30.45,ESE,105,1.0,8.0,48,0.00,,,0.00,Wunderground v.1.15,2013-09-17 19:27:00,
2013-09-17 15:32:00,61.8,40.2,30.45,ESE,113,2.0,5.0,45,0.00,,,0.00,Wunderground v.1.15,2013-09-17 19:32:00,
2013-09-17 15:38:00,61.6,41.7,30.45,East,80,3.0,8.0,48,0.00,,,0.00,Wunderground v.1.15,2013-09-17 19:38:00,
2013-09-17 15:44:00,61.7,41.3,30.44,ESE,102,2.0,8.0,47,0.00,,,0.00,Wunderground v.1.15,2013-09-17 19:44:00,
2013-09-17 15:50:00,61.6,41.7,30.44,ENE,69,3.0,3.0,48,0.00,,,0.00,Wunderground v.1.15,2013-09-17 19:50:00,
2013-09-17 15:55:00,61.6,41.2,30.44,NE,36,2.0,8.0,47,0.00,,,0.00,Wunderground v.1.15,2013-09-17 19:55:00,
2013-09-17 16:01:00,61.5,41.6,30.44,NE,47,2.0,5.0,48,0.00,,,0.00,Wunderground v.1.15,2013-09-17 20:01:00,
2013-09-17 16:07:00,61.4,41.5,30.44,East,94,2.0,8.0,48,0.00,,,0.00,Wunderground v.1.15,2013-09-17 20:07:00,
2013-09-17 16:13:00,61.7,41.3,30.44,ESE,104,3.0,8.0,47,0.00,,,0.00,Wunderground v.1.15,2013-09-17 20:13:00,
2013-09-17 16:18:00,61.8,40.8,30.44,NNE,28,2.0,8.0,46,0.00,,,0.00,Wunderground v.1.15,2013-09-17 20:18:00,
2013-09-17 16:24:00,61.6,41.2,30.44,ESE,111,2.0,8.0,47,0.00,,,0.00,Wunderground v.1.15,2013-09-17 20:24:00,
2013-09-17 16:30:00,61.3,40.9,30.44,ESE,104,3.0,3.0,47,0.00,,,0.00,Wunderground v.1.15,2013-09-17 20:30:00,
2013-09-17 16:36:00,61.8,40.2,30.44,ENE,61,2.0,8.0,45,0.00,,,0.00,Wunderground v.1.15,2013-09-17 20:36:00,
2013-09-17 16:42:00,62.1,41.1,30.44,ENE,64,1.0,8.0,46,0.00,,,0.00,Wunderground v.1.15,2013-09-17 20:42:00,
2013-09-17 16:48:00,62.4,41.3,30.44,ENE,57,1.0,8.0,46,0.00,,,0.00,Wunderground v.1.15,2013-09-17 20:48:00,
2013-09-17 16:54:00,62.8,41.1,30.44,ENE,78,1.0,8.0,45,0.00,,,0.00,Wunderground v.1.15,2013-09-17 20:54:00,
2013-09-17 16:59:00,62.8,41.7,30.44,ENE,71,1.0,8.0,46,0.00,,,0.00,Wunderground v.1.15,2013-09-17 20:59:00,
2013-09-17 17:05:00,62.7,41.0,30.44,East,89,1.0,8.0,45,0.00,,,0.00,Wunderground v.1.15,2013-09-17 21:05:00,
2013-09-17 17:11:00,62.3,40.7,30.44,NE,39,1.0,8.0,45,0.00,,,0.00,Wunderground v.1.15,2013-09-17 21:11:00,
2013-09-17 17:17:00,61.2,40.2,30.43,NNE,13,3.0,8.0,46,0.00,,,0.00,Wunderground v.1.15,2013-09-17 21:17:00,
2013-09-17 17:22:00,60.7,40.9,30.43,East,84,2.0,8.0,48,0.00,,,0.00,Wunderground v.1.15,2013-09-17 21:22:00,
2013-09-17 17:28:00,61.1,40.7,30.43,East,83,1.0,8.0,47,0.00,,,0.00,Wunderground v.1.15,2013-09-17 21:28:00,
2013-09-17 17:34:00,61.7,40.7,30.43,East,83,0.0,8.0,46,0.00,,,0.00,Wunderground v.1.15,2013-09-17 21:34:00,
2013-09-17 17:40:00,62.1,40.5,30.43,East,81,0.0,8.0,45,0.00,,,0.00,Wunderground v.1.15,2013-09-17 21:40:00,
2013-09-17 17:46:00,61.9,40.3,30.43,East,81,0.0,8.0,45,0.00,,,0.00,Wunderground v.1.15,2013-09-17 21:46:00,
2013-09-17 17:52:00,62.1,40.5,30.43,East,81,0.0,8.0,45,0.00,,,0.00,Wunderground v.1.15,2013-09-17 21:52:00,
2013-09-17 17:58:00,62.6,42.6,30.43,East,81,0.0,8.0,48,0.00,,,0.00,Wunderground v.1.15,2013-09-17 21:58:00,
2013-09-17 18:03:00,62.6,44.2,30.43,East,81,0.0,8.0,51,0.00,,,0.00,Wunderground v.1.15,2013-09-17 22:03:00,
2013-09-17 18:09:00,61.8,44.5,30.43,East,81,0.0,8.0,53,0.00,,,0.00,Wunderground v.1.15,2013-09-17 22:09:00,
2013-09-17 18:15:00,60.7,43.9,30.43,East,82,0.0,8.0,54,0.00,,,0.00,Wunderground v.1.15,2013-09-17 22:15:00,
2013-09-17 18:21:00,60.0,43.8,30.43,East,81,0.0,8.0,55,0.00,,,0.00,Wunderground v.1.15,2013-09-17 22:21:00,
2013-09-17 18:26:00,59.3,43.6,30.43,East,81,0.0,8.0,56,0.00,,,0.00,Wunderground v.1.15,2013-09-17 22:26:00,
2013-09-17 18:32:00,58.6,43.4,30.43,East,82,0.0,8.0,57,0.00,,,0.00,Wunderground v.1.15,2013-09-17 22:32:00,
2013-09-17 18:38:00,58.0,43.3,30.42,East,81,0.0,8.0,58,0.00,,,0.00,Wunderground v.1.15,2013-09-17 22:38:00,
2013-09-17 18:44:00,57.1,42.9,30.42,East,82,0.0,8.0,59,0.00,,,0.00,Wunderground v.1.15,2013-09-17 22:44:00,
2013-09-17 18:49:00,56.1,42.8,30.42,East,81,0.0,8.0,61,0.00,,,0.00,Wunderground v.1.15,2013-09-17 22:49:00,
2013-09-17 18:56:00,54.9,42.5,30.42,East,81,0.0,8.0,63,0.00,,,0.00,Wunderground v.1.15,2013-09-17 22:56:00,
2013-09-17 19:01:00,54.0,42.5,30.42,East,81,0.0,8.0,65,0.00,,,0.00,Wunderground v.1.15,2013-09-17 23:01:00,
2013-09-17 19:07:00,53.0,42.7,30.42,East,82,0.0,8.0,68,0.00,,,0.00,Wunderground v.1.15,2013-09-17 23:07:00,
2013-09-17 19:12:00,52.3,42.0,30.42,East,82,0.0,8.0,68,0.00,,,0.00,Wunderground v.1.15,2013-09-17 23:12:00,
2013-09-17 19:18:00,51.8,42.7,30.41,East,81,0.0,8.0,71,0.00,,,0.00,Wunderground v.1.15,2013-09-17 23:18:00,
2013-09-17 19:24:00,51.3,42.9,30.42,East,81,0.0,8.0,73,0.00,,,0.00,Wunderground v.1.15,2013-09-17 23:24:00,
2013-09-17 19:30:00,50.8,42.8,30.42,East,81,0.0,8.0,74,0.00,,,0.00,Wunderground v.1.15,2013-09-17 23:30:00,
2013-09-17 19:35:00,50.3,42.7,30.42,East,81,0.0,8.0,75,0.00,,,0.00,Wunderground v.1.15,2013-09-17 23:35:00,
2013-09-17 19:41:00,49.7,42.4,30.43,East,81,0.0,8.0,76,0.00,,,0.00,Wunderground v.1.15,2013-09-17 23:41:00,
2013-09-17 19:46:00,49.3,42.4,30.43,East,81,0.0,8.0,77,0.00,,,0.00,Wunderground v.1.15,2013-09-17 23:46:00,
2013-09-17 19:52:00,48.8,42.6,30.43,East,81,0.0,8.0,79,0.00,,,0.00,Wunderground v.1.15,2013-09-17 23:52:00,
2013-09-17 19:58:00,48.4,41.9,30.43,East,81,0.0,8.0,78,0.00,,,0.00,Wunderground v.1.15,2013-09-17 23:58:00,
2013-09-17 20:03:00,48.0,42.1,30.43,East,81,0.0,8.0,80,0.00,,,0.00,Wunderground v.1.15,2013-09-18 00:03:00,
2013-09-17 20:08:00,47.6,42.1,30.43,East,81,0.0,8.0,81,0.00,,,0.00,Wunderground v.1.15,2013-09-18 00:08:00,
2013-09-17 20:14:00,47.2,42.0,30.43,East,81,0.0,8.0,82,0.00,,,0.00,Wunderground v.1.15,2013-09-18 00:14:00,
2013-09-17 20:20:00,46.7,41.8,30.43,East,81,0.0,8.0,83,0.00,,,0.00,Wunderground v.1.15,2013-09-18 00:20:00,
2013-09-17 20:25:00,46.3,41.4,30.43,East,81,0.0,8.0,83,0.00,,,0.00,Wunderground v.1.15,2013-09-18 00:25:00,
2013-09-17 20:31:00,45.9,41.3,30.43,East,81,0.0,8.0,84,0.00,,,0.00,Wunderground v.1.15,2013-09-18 00:31:00,
2013-09-17 20:37:00,45.6,41.4,30.43,East,81,0.0,8.0,85,0.00,,,0.00,Wunderground v.1.15,2013-09-18 00:37:00,
2013-09-17 20:42:00,45.3,41.4,30.43,East,81,0.0,8.0,86,0.00,,,0.00,Wunderground v.1.15,2013-09-18 00:42:00,
2013-09-17 20:47:00,45.1,41.5,30.43,East,81,0.0,8.0,87,0.00,,,0.00,Wunderground v.1.15,2013-09-18 00:47:00,
2013-09-17 20:53:00,44.9,41.3,30.42,East,81,0.0,8.0,87,0.00,,,0.00,Wunderground v.1.15,2013-09-18 00:53:00,
2013-09-17 20:59:00,44.6,41.3,30.42,East,81,0.0,8.0,88,0.00,,,0.00,Wunderground v.1.15,2013-09-18 00:59:00,
2013-09-17 21:04:00,44.4,41.1,30.42,East,81,0.0,8.0,88,0.00,,,0.00,Wunderground v.1.15,2013-09-18 01:04:00,
2013-09-17 21:10:00,44.1,40.8,30.42,East,81,0.0,8.0,88,0.00,,,0.00,Wunderground v.1.15,2013-09-18 01:10:00,
2013-09-17 21:18:00,43.8,40.8,30.42,East,81,0.0,8.0,89,0.00,,,0.00,Wunderground v.1.15,2013-09-18 01:18:00,
2013-09-17 21:24:00,43.7,40.7,30.42,East,81,0.0,8.0,89,0.00,,,0.00,Wunderground v.1.15,2013-09-18 01:24:00,
2013-09-17 21:30:00,43.4,40.7,30.42,East,81,0.0,8.0,90,0.00,,,0.00,Wunderground v.1.15,2013-09-18 01:30:00,
2013-09-17 21:36:00,43.2,40.5,30.42,East,81,0.0,8.0,90,0.00,,,0.00,Wunderground v.1.15,2013-09-18 01:36:00,
2013-09-17 21:42:00,43.1,40.4,30.42,East,81,0.0,8.0,90,0.00,,,0.00,Wunderground v.1.15,2013-09-18 01:42:00,
2013-09-17 21:48:00,43.0,40.3,30.42,East,81,0.0,8.0,90,0.00,,,0.00,Wunderground v.1.15,2013-09-18 01:48:00,
2013-09-17 21:54:00,42.8,40.4,30.42,East,81,0.0,8.0,91,0.00,,,0.00,Wunderground v.1.15,2013-09-18 01:54:00,
2013-09-17 22:00:00,42.6,39.9,30.42,East,82,0.0,8.0,90,0.00,,,0.00,Wunderground v.1.15,2013-09-18 02:00:00,
2013-09-17 22:05:00,42.3,39.9,30.42,East,81,0.0,8.0,91,0.00,,,0.00,Wunderground v.1.15,2013-09-18 02:05:00,
2013-09-17 22:11:00,42.3,39.9,30.42,East,82,0.0,8.0,91,0.00,,,0.00,Wunderground v.1.15,2013-09-18 02:11:00,
2013-09-17 22:17:00,42.2,39.8,30.42,East,82,0.0,8.0,91,0.00,,,0.00,Wunderground v.1.15,2013-09-18 02:17:00,
2013-09-17 22:23:00,41.9,39.5,30.43,East,81,0.0,8.0,91,0.00,,,0.00,Wunderground v.1.15,2013-09-18 02:23:00,
2013-09-17 22:29:00,41.7,39.5,30.42,East,81,0.0,8.0,92,0.00,,,0.00,Wunderground v.1.15,2013-09-18 02:29:00,
2013-09-17 22:35:00,41.6,39.4,30.43,East,81,0.0,8.0,92,0.00,,,0.00,Wunderground v.1.15,2013-09-18 02:35:00,
2013-09-17 22:41:00,41.5,39.3,30.42,East,81,0.0,8.0,92,0.00,,,0.00,Wunderground v.1.15,2013-09-18 02:41:00,
2013-09-17 22:46:00,41.4,39.3,30.42,East,81,0.0,8.0,92,0.00,,,0.00,Wunderground v.1.15,2013-09-18 02:46:00,
2013-09-17 22:52:00,41.3,39.2,30.42,East,81,0.0,8.0,92,0.00,,,0.00,Wunderground v.1.15,2013-09-18 02:52:00,
2013-09-17 22:58:00,41.1,39.0,30.42,East,82,0.0,8.0,92,0.00,,,0.00,Wunderground v.1.15,2013-09-18 02:58:00,
2013-09-17 23:04:00,41.0,39.1,30.42,East,82,0.0,8.0,93,0.00,,,0.00,Wunderground v.1.15,2013-09-18 03:04:00,
2013-09-17 23:09:00,40.9,38.8,30.42,East,82,0.0,8.0,92,0.00,,,0.00,Wunderground v.1.15,2013-09-18 03:09:00,
2013-09-17 23:15:00,40.7,38.6,30.42,East,81,0.0,8.0,92,0.00,,,0.00,Wunderground v.1.15,2013-09-18 03:15:00,
2013-09-17 23:21:00,40.6,38.7,30.42,East,82,0.0,8.0,93,0.00,,,0.00,Wunderground v.1.15,2013-09-18 03:21:00,
2013-09-17 23:26:00,40.4,38.5,30.42,East,81,0.0,8.0,93,0.00,,,0.00,Wunderground v.1.15,2013-09-18 03:26:00,
2013-09-17 23:32:00,40.2,38.3,30.42,East,81,0.0,8.0,93,0.00,,,0.00,Wunderground v.1.15,2013-09-18 03:32:00,
2013-09-17 23:38:00,40.1,38.2,30.42,East,82,0.0,8.0,93,0.00,,,0.00,Wunderground v.1.15,2013-09-18 03:38:00,
2013-09-17 23:43:00,40.0,38.1,30.42,East,81,0.0,8.0,93,0.00,,,0.00,Wunderground v.1.15,2013-09-18 03:43:00,
2013-09-17 23:49:00,39.8,37.9,30.42,East,81,0.0,8.0,93,0.00,,,0.00,Wunderground v.1.15,2013-09-18 03:49:00,
2013-09-17 23:55:00,39.9,38.3,30.42,East,82,0.0,8.0,94,0.00,,,0.00,Wunderground v.1.15,2013-09-18 03:55:00,